Time;durP1;ratioP1;P1;durP2;ratioP2;P2;SDS_P1;SDS_P2;PMS_P1;PMS_P2;Temp;Humidity;BMP_temperature;BMP_pressure;BME280_temperature;BME280_humidity;BME280_pressure;Samples;Min_cycle;Max_cycle;Signal;HPM_P1;HPM_P2
2021/03/02 00:01:42;;;;;;;;;;;4.50;99.90;;;;;;4949906;29;19925;-68
2021/03/02 00:04:07;;;;;;;;;;;4.50;99.90;;;;;;4950448;29;19982;-68
2021/03/02 00:06:33;;;;;;;;;;;4.40;99.90;;;;;;4949165;28;20013;-68
2021/03/02 00:08:58;;;;;;;;;;;4.40;99.90;;;;;;4943780;28;19914;-68
2021/03/02 00:11:24;;;;;;;;;;;4.40;99.90;;;;;;4935461;29;19914;-68
2021/03/02 00:13:52;;;;;;;;;;;4.40;99.90;;;;;;4933397;29;19918;-68
2021/03/02 00:16:26;;;;;;;;;;;4.40;99.90;;;;;;4937409;28;20332;-68
2021/03/02 00:18:55;;;;;;;;;;;4.40;99.90;;;;;;4933758;29;19918;-67
2021/03/02 00:21:24;;;;;;;;;;;4.40;99.90;;;;;;4937431;28;20002;-67
2021/03/02 00:23:53;;;;;;;;;;;4.40;99.90;;;;;;4933558;29;21753;-67
2021/03/02 00:26:18;;;;;;;;;;;4.30;99.90;;;;;;4919940;29;20351;-68
2021/03/02 00:28:44;;;;;;;;;;;4.30;99.90;;;;;;4914440;29;19933;-68
2021/03/02 00:31:14;;;;;;;;;;;4.30;99.90;;;;;;4917799;29;21376;-67
2021/03/02 00:33:40;;;;;;;;;;;4.30;99.90;;;;;;4923767;29;19911;-68
2021/03/02 00:36:08;;;;;;;;;;;4.30;99.90;;;;;;4925061;29;19926;-68
2021/03/02 00:38:33;;;;;;;;;;;4.30;99.90;;;;;;4918433;29;20276;-67
2021/03/02 00:40:59;;;;;;;;;;;4.30;99.90;;;;;;4918768;29;19925;-67
2021/03/02 00:43:27;;;;;;;;;;;4.30;99.90;;;;;;4918582;29;19915;-67
2021/03/02 00:45:52;;;;;;;;;;;4.30;99.90;;;;;;4918834;29;19919;-68
2021/03/02 00:48:18;;;;;;;;;;;4.30;99.90;;;;;;4926985;29;19993;-68
2021/03/02 00:50:43;;;;;;;;;;;4.30;99.90;;;;;;4928949;29;19915;-68
2021/03/02 00:53:09;;;;;;;;;;;4.30;99.90;;;;;;4929915;29;20293;-68
2021/03/02 00:55:34;;;;;;;;;;;4.30;99.90;;;;;;4930085;29;19918;-68
2021/03/02 00:58:00;;;;;;;;;;;4.20;99.90;;;;;;4930165;29;19910;-68
2021/03/02 01:00:25;;;;;;;;;;;4.20;99.90;;;;;;4925644;29;19918;-68
2021/03/02 01:02:51;;;;;;;;;;;4.20;99.90;;;;;;4925356;29;20396;-68
2021/03/02 01:05:19;;;;;;;;;;;4.20;99.90;;;;;;4930519;29;19970;-68
2021/03/02 01:07:44;;;;;;;;;;;4.20;99.90;;;;;;4922190;29;20025;-68
2021/03/02 01:10:10;;;;;;;;;;;4.20;99.90;;;;;;4929739;29;20825;-68
2021/03/02 01:12:36;;;;;;;;;;;4.20;99.90;;;;;;4926018;29;20365;-67
2021/03/02 01:15:05;;;;;;;;;;;4.20;99.90;;;;;;4918375;29;19918;-68
2021/03/02 01:17:31;;;;;;;;;;;4.20;99.90;;;;;;4918001;29;20001;-68
2021/03/02 01:19:59;;;;;;;;;;;4.20;99.90;;;;;;4920889;29;19928;-68
2021/03/02 01:22:24;;;;;;;;;;;4.10;99.90;;;;;;4933594;29;19918;-68
2021/03/02 01:24:50;;;;;;;;;;;4.10;99.90;;;;;;4941820;29;19989;-68
2021/03/02 01:27:17;;;;;;;;;;;4.20;99.90;;;;;;4948500;29;19984;-67
2021/03/02 01:29:43;;;;;;;;;;;4.10;99.90;;;;;;4940835;28;20364;-68
2021/03/02 01:32:08;;;;;;;;;;;4.10;99.90;;;;;;4941912;28;19918;-67
2021/03/02 01:34:34;;;;;;;;;;;4.10;99.90;;;;;;4942030;28;20372;-67
2021/03/02 01:37:00;;;;;;;;;;;4.10;99.90;;;;;;4939634;29;20432;-68
2021/03/02 01:39:26;;;;;;;;;;;4.00;99.90;;;;;;4943108;29;19918;-68
2021/03/02 01:41:52;;;;;;;;;;;4.10;99.90;;;;;;4941458;29;20348;-68
2021/03/02 01:44:17;;;;;;;;;;;4.10;99.90;;;;;;4940730;29;19949;-67
2021/03/02 01:46:43;;;;;;;;;;;4.10;99.90;;;;;;4941504;29;19910;-68
2021/03/02 01:49:08;;;;;;;;;;;4.00;99.90;;;;;;4940216;28;19960;-68
2021/03/02 01:51:36;;;;;;;;;;;4.00;99.90;;;;;;4940729;29;19926;-68
2021/03/02 01:54:02;;;;;;;;;;;4.00;99.90;;;;;;4934554;29;20009;-68
2021/03/02 01:56:28;;;;;;;;;;;4.00;99.90;;;;;;4944499;29;20023;-68
2021/03/02 01:58:53;;;;;;;;;;;4.00;99.90;;;;;;4953220;29;20548;-67
2021/03/02 02:01:21;;;;;;;;;;;4.00;99.90;;;;;;4945549;29;19977;-67
2021/03/02 02:03:47;;;;;;;;;;;4.00;99.90;;;;;;4949193;28;19973;-68
2021/03/02 02:06:25;;;;;;;;;;;4.00;99.90;;;;;;4952460;28;20320;-68
2021/03/02 02:09:10;;;;;;;;;;;4.00;99.90;;;;;;4945139;29;19914;-67
2021/03/02 02:11:42;;;;;;;;;;;4.00;99.90;;;;;;4950615;29;20445;-68
2021/03/02 02:14:18;;;;;;;;;;;4.00;99.90;;;;;;4952074;29;19936;-68
2021/03/02 02:16:44;;;;;;;;;;;3.90;99.90;;;;;;4950684;29;19917;-68
2021/03/02 02:19:14;;;;;;;;;;;3.90;99.90;;;;;;4950962;29;20474;-68
2021/03/02 02:21:51;;;;;;;;;;;3.90;99.90;;;;;;4944409;29;19918;-67
2021/03/02 02:24:25;;;;;;;;;;;3.90;99.90;;;;;;4936348;29;19918;-67
2021/03/02 02:26:52;;;;;;;;;;;3.90;99.90;;;;;;4935083;29;19914;-68
2021/03/02 02:29:18;;;;;;;;;;;3.90;99.90;;;;;;4923786;29;20284;-68
2021/03/02 02:31:44;;;;;;;;;;;3.90;99.90;;;;;;4946683;28;20433;-68
2021/03/02 02:34:15;;;;;;;;;;;3.90;99.90;;;;;;4952766;29;20009;-68
2021/03/02 02:36:40;;;;;;;;;;;3.90;99.90;;;;;;4944144;29;19929;-68
2021/03/02 02:39:06;;;;;;;;;;;3.80;99.90;;;;;;4940151;29;20275;-68
2021/03/02 02:41:32;;;;;;;;;;;3.90;99.90;;;;;;4936658;29;19989;-69
2021/03/02 02:43:57;;;;;;;;;;;3.80;99.90;;;;;;4939659;29;19925;-68
2021/03/02 02:46:25;;;;;;;;;;;3.80;99.90;;;;;;4938853;29;19910;-68
2021/03/02 02:48:51;;;;;;;;;;;3.80;99.90;;;;;;4949326;29;20263;-68
2021/03/02 02:51:16;;;;;;;;;;;3.80;99.90;;;;;;4947480;28;20001;-68
2021/03/02 02:53:42;;;;;;;;;;;3.80;99.90;;;;;;4946221;29;19997;-68
2021/03/02 02:56:07;;;;;;;;;;;3.80;99.90;;;;;;4935525;29;20492;-68
2021/03/02 02:58:36;;;;;;;;;;;3.80;99.90;;;;;;4951136;29;20380;-68
2021/03/02 03:01:05;;;;;;;;;;;3.70;99.90;;;;;;4950205;29;19918;-68
2021/03/02 03:03:33;;;;;;;;;;;3.80;99.90;;;;;;4948317;29;19910;-68
2021/03/02 03:05:59;;;;;;;;;;;3.70;99.90;;;;;;4944045;28;19925;-67
2021/03/02 03:08:27;;;;;;;;;;;3.70;99.90;;;;;;4940208;29;19929;-68
2021/03/02 03:10:55;;;;;;;;;;;3.70;99.90;;;;;;4950524;29;19918;-68
2021/03/02 03:13:22;;;;;;;;;;;3.70;99.90;;;;;;4948572;29;19921;-68
2021/03/02 03:15:48;;;;;;;;;;;3.60;99.90;;;;;;4941859;29;19999;-67
2021/03/02 03:18:14;;;;;;;;;;;3.60;99.90;;;;;;4920157;29;19919;-68
2021/03/02 03:20:39;;;;;;;;;;;3.60;99.90;;;;;;4941122;29;19924;-68
2021/03/02 03:23:05;;;;;;;;;;;3.60;99.90;;;;;;4938704;29;19918;-68
2021/03/02 03:25:32;;;;;;;;;;;3.70;99.90;;;;;;4938679;29;19966;-68
2021/03/02 03:27:58;;;;;;;;;;;3.60;99.90;;;;;;4935776;28;19922;-68
2021/03/02 03:30:27;;;;;;;;;;;3.60;99.90;;;;;;4933197;28;19915;-67
2021/03/02 03:33:01;;;;;;;;;;;3.60;99.90;;;;;;4934993;29;19925;-67
2021/03/02 03:35:29;;;;;;;;;;;3.60;99.90;;;;;;4934069;29;20013;-68
2021/03/02 03:37:55;;;;;;;;;;;3.60;99.90;;;;;;4936920;29;19914;-68
2021/03/02 03:40:23;;;;;;;;;;;3.60;99.90;;;;;;4934698;29;19973;-68
2021/03/02 03:42:48;;;;;;;;;;;3.60;99.90;;;;;;4938390;29;19914;-68
2021/03/02 03:45:16;;;;;;;;;;;3.60;99.90;;;;;;4939957;29;20036;-68
2021/03/02 03:47:42;;;;;;;;;;;3.50;99.90;;;;;;4940011;28;19950;-68
2021/03/02 03:50:07;;;;;;;;;;;3.50;99.90;;;;;;4942450;29;19914;-67
2021/03/02 03:52:35;;;;;;;;;;;3.50;99.90;;;;;;4941501;29;19910;-68
2021/03/02 03:55:03;;;;;;;;;;;3.50;99.90;;;;;;4951204;29;19922;-68
2021/03/02 03:57:29;;;;;;;;;;;3.40;99.90;;;;;;4945006;29;19949;-68
2021/03/02 03:59:54;;;;;;;;;;;3.40;99.90;;;;;;4926234;29;20065;-67
2021/03/02 04:02:20;;;;;;;;;;;3.40;99.90;;;;;;4925170;29;19918;-68
2021/03/02 04:04:48;;;;;;;;;;;3.40;99.90;;;;;;4934190;29;20472;-68
2021/03/02 04:07:14;;;;;;;;;;;3.40;99.90;;;;;;4937950;29;19915;-67
2021/03/02 04:09:39;;;;;;;;;;;3.40;99.90;;;;;;4938079;29;19922;-67
2021/03/02 04:12:05;;;;;;;;;;;3.30;99.90;;;;;;4933925;29;19925;-67
2021/03/02 04:14:31;;;;;;;;;;;3.30;99.90;;;;;;4938365;29;19918;-68
2021/03/02 04:16:57;;;;;;;;;;;3.30;99.90;;;;;;4939441;29;19943;-67
2021/03/02 04:19:22;;;;;;;;;;;3.30;99.90;;;;;;4934243;29;19922;-68
2021/03/02 04:21:48;;;;;;;;;;;3.30;99.90;;;;;;4942037;29;19922;-67
2021/03/02 04:24:15;;;;;;;;;;;3.30;99.90;;;;;;4938617;29;19915;-68
2021/03/02 04:26:41;;;;;;;;;;;3.20;99.90;;;;;;4924985;29;20376;-68
2021/03/02 04:29:11;;;;;;;;;;;3.20;99.90;;;;;;4933888;29;19926;-68
2021/03/02 04:31:37;;;;;;;;;;;3.20;99.90;;;;;;4939968;29;19918;-68
2021/03/02 04:34:02;;;;;;;;;;;3.20;99.90;;;;;;4938708;29;19914;-68
2021/03/02 04:36:28;;;;;;;;;;;3.20;99.90;;;;;;4941912;29;19910;-68
2021/03/02 04:38:53;;;;;;;;;;;3.20;99.90;;;;;;4949766;29;20487;-68
2021/03/02 04:41:21;;;;;;;;;;;3.20;99.90;;;;;;4950543;28;19910;-68
2021/03/02 04:43:49;;;;;;;;;;;3.10;99.90;;;;;;4937676;29;19946;-67
2021/03/02 04:46:15;;;;;;;;;;;3.10;99.90;;;;;;4947428;29;19949;-68
2021/03/02 04:48:43;;;;;;;;;;;3.10;99.90;;;;;;4949715;29;19949;-68
2021/03/02 04:51:08;;;;;;;;;;;3.10;99.90;;;;;;4950341;29;20000;-68
2021/03/02 04:53:34;;;;;;;;;;;3.10;99.90;;;;;;4950794;28;19946;-67
2021/03/02 04:56:00;;;;;;;;;;;3.10;99.90;;;;;;4949418;29;19946;-68
2021/03/02 04:58:28;;;;;;;;;;;3.10;99.90;;;;;;4941454;29;19978;-68
2021/03/02 05:00:56;;;;;;;;;;;3.10;99.90;;;;;;4937405;29;19914;-67
2021/03/02 05:03:21;;;;;;;;;;;3.10;99.90;;;;;;4938459;29;19993;-68
2021/03/02 05:05:51;;;;;;;;;;;3.10;99.90;;;;;;4937826;29;19915;-68
2021/03/02 05:08:17;;;;;;;;;;;3.10;99.90;;;;;;4952398;28;19925;-68
2021/03/02 05:10:42;;;;;;;;;;;3.10;99.90;;;;;;4941898;29;19918;-67
2021/03/02 05:13:08;;;;;;;;;;;3.10;99.90;;;;;;4938503;29;19961;-67
2021/03/02 05:15:36;;;;;;;;;;;3.10;99.90;;;;;;4939604;29;19958;-68
2021/03/02 05:18:02;;;;;;;;;;;3.00;99.90;;;;;;4940127;29;20280;-68
2021/03/02 05:20:27;;;;;;;;;;;3.00;99.90;;;;;;4939291;28;19914;-67
2021/03/02 05:22:53;;;;;;;;;;;3.00;99.90;;;;;;4938303;29;20296;-68
2021/03/02 05:25:21;;;;;;;;;;;3.00;99.90;;;;;;4941743;29;21877;-68
2021/03/02 05:27:46;;;;;;;;;;;3.00;99.90;;;;;;4946224;29;19950;-68
2021/03/02 05:30:12;;;;;;;;;;;3.00;99.90;;;;;;4946703;29;20003;-68
2021/03/02 05:32:37;;;;;;;;;;;3.00;99.90;;;;;;4941970;29;20037;-68
2021/03/02 05:35:06;;;;;;;;;;;3.00;99.90;;;;;;4936699;29;20477;-68
2021/03/02 05:37:31;;;;;;;;;;;2.90;99.90;;;;;;4938490;28;20566;-68
2021/03/02 05:39:57;;;;;;;;;;;2.90;99.90;;;;;;4938886;29;19918;-68
2021/03/02 05:42:22;;;;;;;;;;;2.90;99.90;;;;;;4946320;29;19954;-68
2021/03/02 05:44:48;;;;;;;;;;;2.90;99.90;;;;;;4949141;29;19993;-68
2021/03/02 05:47:14;;;;;;;;;;;2.90;99.90;;;;;;4940311;29;20466;-68
2021/03/02 05:49:40;;;;;;;;;;;2.90;99.90;;;;;;4934369;29;19925;-68
2021/03/02 05:52:06;;;;;;;;;;;2.90;99.90;;;;;;4933347;29;19926;-67
2021/03/02 05:54:34;;;;;;;;;;;2.90;99.90;;;;;;4950537;28;19910;-68
2021/03/02 05:57:02;;;;;;;;;;;2.90;99.90;;;;;;4925856;29;19918;-68
2021/03/02 05:59:28;;;;;;;;;;;2.90;99.90;;;;;;4939244;29;19945;-68
2021/03/02 06:01:53;;;;;;;;;;;3.00;99.90;;;;;;4937740;29;20351;-68
2021/03/02 06:04:19;;;;;;;;;;;2.90;99.90;;;;;;4937985;28;19914;-68
2021/03/02 06:06:47;;;;;;;;;;;2.90;99.90;;;;;;4940475;29;19918;-68
2021/03/02 06:09:12;;;;;;;;;;;3.00;99.90;;;;;;4941517;29;19929;-68
2021/03/02 06:11:38;;;;;;;;;;;2.90;99.90;;;;;;4940958;29;19926;-68
2021/03/02 06:14:22;;;;;;;;;;;3.00;99.90;;;;;;4948470;29;19918;-68
2021/03/02 06:16:48;;;;;;;;;;;2.90;99.90;;;;;;4946441;29;19919;-68
2021/03/02 06:19:14;;;;;;;;;;;3.00;99.90;;;;;;4949032;29;19921;-68
2021/03/02 06:21:42;;;;;;;;;;;2.90;99.90;;;;;;4953326;29;19926;-68
2021/03/02 06:24:08;;;;;;;;;;;2.90;99.90;;;;;;4947448;29;19926;-68
2021/03/02 06:26:36;;;;;;;;;;;2.90;99.90;;;;;;4947029;29;20451;-68
2021/03/02 06:29:11;;;;;;;;;;;3.00;99.90;;;;;;4952118;29;19918;-69
2021/03/02 06:31:40;;;;;;;;;;;3.00;99.90;;;;;;4952267;29;20283;-68
2021/03/02 06:34:09;;;;;;;;;;;3.00;99.90;;;;;;4947742;29;19921;-68
2021/03/02 06:36:38;;;;;;;;;;;3.00;99.90;;;;;;4950941;29;20269;-68
2021/03/02 06:39:33;;;;;;;;;;;3.00;99.90;;;;;;4940263;29;20575;-67
2021/03/02 06:42:09;;;;;;;;;;;3.00;99.90;;;;;;4932991;29;19915;-68
2021/03/02 06:44:35;;;;;;;;;;;3.00;99.90;;;;;;4949664;29;19910;-68
2021/03/02 06:47:01;;;;;;;;;;;3.00;99.90;;;;;;4949601;28;19910;-68
2021/03/02 06:49:39;;;;;;;;;;;3.00;99.90;;;;;;4951107;29;19922;-68
2021/03/02 06:52:15;;;;;;;;;;;3.10;99.90;;;;;;4947371;29;19986;-68
2021/03/02 06:54:40;;;;;;;;;;;3.10;99.90;;;;;;4951458;29;19910;-68
2021/03/02 06:57:08;;;;;;;;;;;3.10;99.90;;;;;;4951794;28;19929;-68
2021/03/02 06:59:36;;;;;;;;;;;3.10;99.90;;;;;;4951702;29;19989;-68
2021/03/02 07:02:01;;;;;;;;;;;3.10;99.90;;;;;;4950213;29;19910;-68
2021/03/02 07:04:28;;;;;;;;;;;3.10;99.90;;;;;;4950810;28;20454;-68
2021/03/02 07:06:58;;;;;;;;;;;3.20;99.90;;;;;;4950562;29;19910;-68
2021/03/02 07:09:26;;;;;;;;;;;3.20;99.90;;;;;;4949480;29;20312;-68
2021/03/02 07:11:52;;;;;;;;;;;3.20;99.90;;;;;;4951494;29;20437;-68
2021/03/02 07:14:18;;;;;;;;;;;3.20;99.90;;;;;;4948660;29;19914;-68
2021/03/02 07:16:47;;;;;;;;;;;3.20;99.90;;;;;;4948707;28;19910;-68
2021/03/02 07:19:20;;;;;;;;;;;3.30;99.90;;;;;;4946530;29;19970;-68
2021/03/02 07:21:46;;;;;;;;;;;3.30;99.90;;;;;;4946437;29;19915;-68
2021/03/02 07:24:13;;;;;;;;;;;3.30;99.90;;;;;;4949291;29;19910;-67
2021/03/02 07:26:45;;;;;;;;;;;3.40;99.90;;;;;;4950257;28;20402;-68
2021/03/02 07:29:11;;;;;;;;;;;3.40;99.90;;;;;;4950323;29;20334;-68
2021/03/02 07:31:36;;;;;;;;;;;3.40;99.90;;;;;;4948777;29;19928;-68
2021/03/02 07:34:05;;;;;;;;;;;3.50;99.90;;;;;;4950705;29;19956;-68
2021/03/02 07:36:34;;;;;;;;;;;3.50;99.90;;;;;;4947961;29;19991;-68
2021/03/02 07:39:11;;;;;;;;;;;3.60;99.90;;;;;;4949985;29;19915;-68
2021/03/02 07:41:38;;;;;;;;;;;3.60;99.90;;;;;;4962306;28;19924;-68
2021/03/02 07:44:07;;;;;;;;;;;3.70;99.90;;;;;;4950646;29;19918;-68
2021/03/02 07:46:39;;;;;;;;;;;3.70;99.90;;;;;;4949337;29;19918;-68
2021/03/02 07:49:26;;;;;;;;;;;3.80;99.90;;;;;;4951126;29;19993;-68
2021/03/02 07:52:03;;;;;;;;;;;3.80;99.90;;;;;;4950499;29;20401;-68
2021/03/02 07:54:31;;;;;;;;;;;3.90;99.90;;;;;;4964412;28;19944;-69
2021/03/02 07:57:15;;;;;;;;;;;4.00;99.90;;;;;;4948819;28;19921;-68
2021/03/02 07:59:40;;;;;;;;;;;4.00;99.90;;;;;;4948677;29;19914;-68
2021/03/02 08:02:21;;;;;;;;;;;4.10;99.90;;;;;;4949969;29;20271;-68
2021/03/02 08:04:50;;;;;;;;;;;4.20;99.90;;;;;;4950020;29;20119;-68
2021/03/02 08:07:27;;;;;;;;;;;4.30;99.90;;;;;;4948928;29;19943;-68
2021/03/02 08:09:58;;;;;;;;;;;4.40;99.90;;;;;;4946628;29;19953;-68
2021/03/02 08:12:28;;;;;;;;;;;4.50;99.90;;;;;;4949418;29;20005;-69
2021/03/02 08:14:54;;;;;;;;;;;4.50;99.90;;;;;;4948361;29;19910;-68
2021/03/02 08:17:20;;;;;;;;;;;4.60;99.90;;;;;;4945552;29;19922;-68
2021/03/02 08:19:49;;;;;;;;;;;4.70;99.90;;;;;;4949551;29;19922;-68
2021/03/02 08:22:18;;;;;;;;;;;4.80;99.90;;;;;;4949435;29;19914;-68
2021/03/02 08:24:50;;;;;;;;;;;4.80;99.90;;;;;;4950043;28;19925;-68
2021/03/02 08:27:34;;;;;;;;;;;5.00;99.90;;;;;;4949308;28;20481;-68
2021/03/02 08:30:00;;;;;;;;;;;5.10;99.90;;;;;;4948721;29;19926;-68
2021/03/02 08:32:27;;;;;;;;;;;5.20;99.90;;;;;;4950251;29;20016;-68
2021/03/02 08:34:53;;;;;;;;;;;5.20;99.90;;;;;;4949890;28;19924;-68
2021/03/02 08:37:21;;;;;;;;;;;5.30;99.90;;;;;;4945756;28;20427;-69
2021/03/02 08:39:55;;;;;;;;;;;5.40;99.90;;;;;;4931939;29;19914;-69
2021/03/02 08:42:22;;;;;;;;;;;5.50;99.90;;;;;;4948829;29;19918;-68
2021/03/02 08:44:48;;;;;;;;;;;5.60;99.90;;;;;;4944772;29;20263;-69
2021/03/02 08:47:16;;;;;;;;;;;5.80;99.90;;;;;;4929312;29;19915;-68
2021/03/02 08:49:47;;;;;;;;;;;6.00;99.90;;;;;;4946830;29;19997;-69
2021/03/02 08:52:13;;;;;;;;;;;6.10;99.90;;;;;;4949410;29;20341;-69
2021/03/02 08:54:48;;;;;;;;;;;6.30;99.90;;;;;;4949687;28;19914;-69
2021/03/02 08:57:14;;;;;;;;;;;6.40;99.90;;;;;;4947977;29;19918;-69
2021/03/02 08:59:39;;;;;;;;;;;6.60;99.90;;;;;;4949746;28;20327;-69
2021/03/02 09:02:07;;;;;;;;;;;6.80;99.90;;;;;;4948982;29;19929;-69
2021/03/02 09:04:33;;;;;;;;;;;7.00;99.90;;;;;;4930892;29;19947;-69
2021/03/02 09:06:59;;;;;;;;;;;7.20;99.90;;;;;;4948433;29;19918;-69
2021/03/02 09:09:25;;;;;;;;;;;7.40;99.90;;;;;;4947534;28;19922;-69
2021/03/02 09:11:51;;;;;;;;;;;7.60;99.90;;;;;;4947886;28;20458;-69
2021/03/02 09:14:17;;;;;;;;;;;7.80;99.90;;;;;;4959411;28;19914;-69
2021/03/02 09:16:45;;;;;;;;;;;7.90;99.90;;;;;;4947585;29;19929;-69
2021/03/02 09:19:12;;;;;;;;;;;8.10;98.60;;;;;;4948733;28;19910;-69
2021/03/02 09:21:41;;;;;;;;;;;8.20;99.90;;;;;;4927317;29;19921;-69
2021/03/02 09:24:09;;;;;;;;;;;8.30;99.90;;;;;;4944693;29;20395;-69
2021/03/02 09:26:39;;;;;;;;;;;8.40;98.50;;;;;;4943557;29;19941;-68
2021/03/02 09:29:07;;;;;;;;;;;8.60;96.10;;;;;;4950450;29;20037;-69
2021/03/02 09:31:33;;;;;;;;;;;8.70;99.20;;;;;;4944797;29;19925;-69
2021/03/02 09:33:58;;;;;;;;;;;8.80;99.40;;;;;;4949612;28;19911;-69
2021/03/02 09:36:25;;;;;;;;;;;8.80;95.60;;;;;;4948842;29;19915;-69
2021/03/02 09:38:53;;;;;;;;;;;8.90;91.50;;;;;;4949191;28;19915;-68
2021/03/02 09:41:37;;;;;;;;;;;8.90;87.90;;;;;;4951153;28;19925;-68
2021/03/02 09:44:18;;;;;;;;;;;8.90;94.10;;;;;;4951495;29;19920;-69
2021/03/02 09:46:44;;;;;;;;;;;8.90;91.80;;;;;;4951472;29;19918;-69
2021/03/02 09:49:09;;;;;;;;;;;9.00;87.30;;;;;;4951440;28;19914;-69
2021/03/02 09:51:37;;;;;;;;;;;9.00;92.10;;;;;;4951851;29;19921;-69
2021/03/02 09:54:18;;;;;;;;;;;9.00;91.70;;;;;;4953163;29;20001;-69
2021/03/02 09:56:44;;;;;;;;;;;9.00;88.10;;;;;;4951257;29;19938;-69
2021/03/02 09:59:10;;;;;;;;;;;9.10;89.30;;;;;;4951811;29;19973;-69
2021/03/02 10:01:37;;;;;;;;;;;9.10;90.30;;;;;;4951256;28;19918;-69
2021/03/02 10:04:06;;;;;;;;;;;9.10;91.70;;;;;;4952553;29;19996;-69
2021/03/02 10:06:32;;;;;;;;;;;9.10;90.60;;;;;;4951195;29;19953;-69
2021/03/02 10:09:01;;;;;;;;;;;9.10;87.90;;;;;;4952588;28;20364;-69
2021/03/02 10:11:30;;;;;;;;;;;9.10;90.20;;;;;;4951968;29;19914;-69
2021/03/02 10:14:05;;;;;;;;;;;9.20;92.10;;;;;;4947038;29;19910;-69
2021/03/02 10:16:31;;;;;;;;;;;9.20;92.40;;;;;;4951175;28;19914;-69
2021/03/02 10:19:21;;;;;;;;;;;9.20;89.20;;;;;;4951293;29;19917;-69
2021/03/02 10:21:46;;;;;;;;;;;9.30;91.00;;;;;;4952814;28;19986;-69
2021/03/02 10:24:18;;;;;;;;;;;9.40;91.20;;;;;;4952120;29;19922;-68
2021/03/02 10:26:46;;;;;;;;;;;9.50;93.80;;;;;;4951194;29;19990;-69
2021/03/02 10:29:12;;;;;;;;;;;9.60;95.10;;;;;;4951995;28;19929;-69
2021/03/02 10:31:37;;;;;;;;;;;9.70;92.60;;;;;;4951309;29;20296;-69
2021/03/02 10:34:03;;;;;;;;;;;9.80;96.00;;;;;;4933901;29;20005;-68
2021/03/02 10:36:32;;;;;;;;;;;9.90;90.50;;;;;;4949743;29;19925;-69
2021/03/02 10:38:58;;;;;;;;;;;10.00;92.30;;;;;;4950069;28;19918;-69
2021/03/02 10:41:24;;;;;;;;;;;10.00;91.30;;;;;;4950628;29;19910;-67
2021/03/02 10:43:50;;;;;;;;;;;10.10;89.10;;;;;;4951937;29;19925;-68
2021/03/02 10:46:16;;;;;;;;;;;10.20;89.00;;;;;;4951151;29;19957;-67
2021/03/02 10:48:42;;;;;;;;;;;10.30;90.70;;;;;;4947361;29;19925;-68
2021/03/02 10:51:08;;;;;;;;;;;10.50;92.50;;;;;;4951326;28;19918;-69
2021/03/02 10:53:33;;;;;;;;;;;10.50;92.90;;;;;;4951140;29;20009;-69
2021/03/02 10:55:59;;;;;;;;;;;10.70;92.20;;;;;;4953083;29;20324;-69
2021/03/02 10:58:26;;;;;;;;;;;10.80;91.40;;;;;;4950078;29;20233;-68
2021/03/02 11:00:55;;;;;;;;;;;10.80;90.30;;;;;;4950825;29;21742;-68
2021/03/02 11:03:23;;;;;;;;;;;11.00;94.60;;;;;;4949554;28;19941;-68
2021/03/02 11:05:50;;;;;;;;;;;11.10;86.40;;;;;;4952005;29;19914;-68
2021/03/02 11:08:15;;;;;;;;;;;11.10;82.60;;;;;;4950717;29;20138;-68
2021/03/02 11:10:42;;;;;;;;;;;11.20;86.10;;;;;;4951242;28;20488;-68
2021/03/02 11:13:07;;;;;;;;;;;11.20;85.30;;;;;;4950594;29;19922;-68
2021/03/02 11:15:33;;;;;;;;;;;11.30;87.30;;;;;;4949005;28;19914;-68
2021/03/02 11:18:01;;;;;;;;;;;11.50;83.30;;;;;;4949860;29;19914;-68
2021/03/02 11:20:27;;;;;;;;;;;11.60;85.30;;;;;;4950558;29;19925;-69
2021/03/02 11:22:52;;;;;;;;;;;11.70;79.90;;;;;;4951431;29;19916;-68
2021/03/02 11:25:27;;;;;;;;;;;11.90;82.10;;;;;;4950526;29;19922;-68
2021/03/02 11:27:55;;;;;;;;;;;12.10;79.70;;;;;;4949762;29;19911;-68
2021/03/02 11:30:23;;;;;;;;;;;12.30;83.60;;;;;;4951095;29;20008;-68
2021/03/02 11:32:49;;;;;;;;;;;12.50;77.70;;;;;;4950760;28;19933;-68
2021/03/02 11:35:15;;;;;;;;;;;12.70;74.60;;;;;;4932619;29;20339;-68
2021/03/02 11:37:40;;;;;;;;;;;12.80;75.50;;;;;;4950653;28;20283;-68
2021/03/02 11:40:10;;;;;;;;;;;12.90;79.60;;;;;;4945510;29;19918;-68
2021/03/02 11:42:35;;;;;;;;;;;13.10;74.40;;;;;;4950809;28;19997;-68
2021/03/02 11:45:03;;;;;;;;;;;13.00;72.90;;;;;;4950342;28;20465;-68
2021/03/02 11:47:29;;;;;;;;;;;13.10;74.00;;;;;;4940662;29;19999;-67
2021/03/02 11:49:54;;;;;;;;;;;13.10;71.30;;;;;;4950538;28;20013;-68
2021/03/02 11:52:22;;;;;;;;;;;13.20;70.00;;;;;;4948589;28;20008;-68
2021/03/02 11:54:48;;;;;;;;;;;13.30;73.20;;;;;;4948948;29;20487;-68
2021/03/02 11:57:16;;;;;;;;;;;13.40;71.20;;;;;;4948376;29;19910;-68
2021/03/02 11:59:46;;;;;;;;;;;13.20;71.70;;;;;;4948058;28;20020;-68
2021/03/02 12:02:17;;;;;;;;;;;13.30;71.80;;;;;;4950870;28;19950;-68
2021/03/02 12:04:43;;;;;;;;;;;13.40;72.00;;;;;;4961726;28;19930;-68
2021/03/02 12:07:09;;;;;;;;;;;13.40;71.80;;;;;;4948472;29;19919;-68
2021/03/02 12:09:34;;;;;;;;;;;13.50;69.80;;;;;;4950411;28;19923;-69
2021/03/02 12:12:00;;;;;;;;;;;13.50;71.90;;;;;;4930292;29;19921;-69
2021/03/02 12:14:26;;;;;;;;;;;13.50;69.90;;;;;;4949311;29;20378;-69
2021/03/02 12:16:51;;;;;;;;;;;13.40;72.60;;;;;;4949254;28;19930;-69
2021/03/02 12:19:17;;;;;;;;;;;13.40;69.80;;;;;;4950211;29;20451;-69
2021/03/02 12:21:42;;;;;;;;;;;13.40;68.40;;;;;;4949472;29;20006;-70
2021/03/02 12:24:08;;;;;;;;;;;13.30;69.30;;;;;;4943060;29;20001;-69
2021/03/02 12:26:36;;;;;;;;;;;13.10;71.00;;;;;;4947703;29;20468;-69
2021/03/02 12:29:03;;;;;;;;;;;13.00;69.20;;;;;;4949846;29;19926;-69
2021/03/02 12:31:29;;;;;;;;;;;13.00;72.00;;;;;;4949540;28;19918;-70
2021/03/02 12:33:54;;;;;;;;;;;12.90;69.40;;;;;;4948181;29;20386;-69
2021/03/02 12:36:22;;;;;;;;;;;12.80;69.90;;;;;;4949199;28;20871;-69
2021/03/02 12:38:48;;;;;;;;;;;12.80;73.10;;;;;;4948450;29;19914;-69
2021/03/02 12:41:13;;;;;;;;;;;12.80;72.60;;;;;;4947768;29;21750;-69
2021/03/02 12:43:39;;;;;;;;;;;12.80;70.80;;;;;;4949967;28;19910;-69
2021/03/02 12:46:05;;;;;;;;;;;12.80;72.80;;;;;;4950565;29;20284;-70
2021/03/02 12:48:30;;;;;;;;;;;12.80;73.40;;;;;;4949873;28;20005;-69
2021/03/02 12:50:56;;;;;;;;;;;12.80;74.20;;;;;;4950350;29;19918;-69
2021/03/02 12:53:21;;;;;;;;;;;12.90;72.10;;;;;;4948802;28;20354;-69
2021/03/02 12:55:47;;;;;;;;;;;12.90;72.90;;;;;;4948546;29;20566;-69
2021/03/02 12:58:12;;;;;;;;;;;13.00;71.10;;;;;;4944014;29;20391;-69
2021/03/02 13:00:38;;;;;;;;;;;12.90;70.80;;;;;;4948656;29;19957;-69
2021/03/02 13:03:03;;;;;;;;;;;13.00;73.20;;;;;;4948921;28;20345;-69
2021/03/02 13:05:29;;;;;;;;;;;12.90;70.90;;;;;;4948021;29;19942;-69
2021/03/02 13:07:55;;;;;;;;;;;12.90;69.60;;;;;;4949038;29;19971;-69
2021/03/02 13:10:24;;;;;;;;;;;12.90;73.00;;;;;;4949774;29;19925;-70
2021/03/02 13:12:49;;;;;;;;;;;12.90;76.00;;;;;;4929463;29;19938;-69
2021/03/02 13:15:15;;;;;;;;;;;12.90;70.30;;;;;;4945476;28;19942;-68
2021/03/02 13:17:41;;;;;;;;;;;13.00;70.90;;;;;;4953474;29;20395;-67
2021/03/02 13:20:07;;;;;;;;;;;13.00;72.50;;;;;;4953421;29;19918;-67
2021/03/02 13:22:35;;;;;;;;;;;13.10;72.90;;;;;;4953595;28;19918;-69
2021/03/02 13:25:03;;;;;;;;;;;13.20;76.80;;;;;;4953614;29;19910;-68
2021/03/02 13:27:31;;;;;;;;;;;13.20;72.40;;;;;;4953408;28;19950;-67
2021/03/02 13:29:57;;;;;;;;;;;13.20;71.90;;;;;;4951842;29;19965;-67
2021/03/02 13:32:30;;;;;;;;;;;13.10;73.30;;;;;;4952607;29;20443;-68
2021/03/02 13:34:58;;;;;;;;;;;13.10;69.50;;;;;;4954150;29;19986;-68
2021/03/02 13:37:23;;;;;;;;;;;13.10;70.90;;;;;;4936384;29;19917;-67
2021/03/02 13:39:49;;;;;;;;;;;13.00;72.60;;;;;;4952059;29;19914;-67
2021/03/02 13:42:15;;;;;;;;;;;13.00;72.30;;;;;;4940559;28;19953;-68
2021/03/02 13:44:40;;;;;;;;;;;12.90;72.40;;;;;;4952185;29;19929;-68
2021/03/02 13:47:06;;;;;;;;;;;12.90;70.90;;;;;;4953074;28;19918;-67
2021/03/02 13:49:31;;;;;;;;;;;12.90;73.30;;;;;;4952632;29;19925;-67
2021/03/02 13:51:57;;;;;;;;;;;13.00;75.40;;;;;;4953384;28;19969;-68
2021/03/02 13:54:25;;;;;;;;;;;12.90;72.00;;;;;;4951120;29;20001;-67
2021/03/02 13:56:50;;;;;;;;;;;13.00;73.40;;;;;;4952440;28;19918;-67
2021/03/02 13:59:20;;;;;;;;;;;12.90;72.20;;;;;;4950569;28;20401;-68
2021/03/02 14:01:46;;;;;;;;;;;12.90;70.60;;;;;;4951066;29;19910;-68
2021/03/02 14:04:11;;;;;;;;;;;12.80;70.50;;;;;;4953045;29;19972;-68
2021/03/02 14:06:42;;;;;;;;;;;12.80;69.90;;;;;;4950931;29;19946;-68
2021/03/02 14:09:10;;;;;;;;;;;12.80;71.30;;;;;;4950849;29;19972;-68
2021/03/02 14:11:36;;;;;;;;;;;12.80;70.90;;;;;;4952239;29;19949;-68
2021/03/02 14:14:05;;;;;;;;;;;12.80;72.70;;;;;;4949938;29;20453;-68
2021/03/02 14:16:31;;;;;;;;;;;12.70;70.50;;;;;;4945502;29;19988;-68
2021/03/02 14:18:57;;;;;;;;;;;12.70;73.80;;;;;;4946059;29;19962;-68
2021/03/02 14:21:23;;;;;;;;;;;12.70;73.30;;;;;;4950694;29;19957;-68
2021/03/02 14:23:51;;;;;;;;;;;12.60;71.90;;;;;;4950417;29;19942;-68
2021/03/02 14:26:17;;;;;;;;;;;12.50;70.80;;;;;;4950082;28;20013;-68
2021/03/02 14:28:45;;;;;;;;;;;12.50;73.40;;;;;;4953044;28;20029;-67